Time;durP1;ratioP1;P1;durP2;ratioP2;P2;SDS_P1;SDS_P2;PMS_P1;PMS_P2;Temp;Humidity;BMP_temperature;BMP_pressure;BME280_temperature;BME280_humidity;BME280_pressure;Samples;Min_cycle;Max_cycle;Signal;HPM_P1;HPM_P2
2022/06/07 15:28:14;;;;;;;11.20;5.80;;;;;;;;;;5085081;27;20328;-75
2022/06/07 15:30:41;;;;;;;8.40;5.70;;;;;;;;;;5086951;28;20247;-76
2022/06/07 15:33:08;;;;;;;10.07;5.90;;;;;;;;;;5086094;28;20287;-75
2022/06/07 15:35:36;;;;;;;9.30;6.00;;;;;;;;;;5095751;28;20189;-74
2022/06/07 15:38:03;;;;;;;11.32;6.07;;;;;;;;;;5087565;28;20244;-75
2022/06/07 15:40:29;;;;;;;7.72;5.32;;;;;;;;;;5084690;28;20280;-75
2022/06/07 15:42:58;;;;;;;8.45;5.80;;;;;;;;;;5082855;28;20336;-75
2022/06/07 15:45:28;;;;;;;10.38;6.30;;;;;;;;;;5090746;28;20193;-74
2022/06/07 15:47:59;;;;;;;10.50;6.53;;;;;;;;;;5086053;28;20198;-76
2022/06/07 15:50:25;;;;;;;8.85;6.78;;;;;;;;;;5101407;28;20188;-75
2022/06/07 15:52:51;;;;;;;10.75;6.80;;;;;;;;;;5090596;28;20268;-73
2022/06/07 15:55:17;;;;;;;9.77;6.47;;;;;;;;;;5090212;28;20182;-71
2022/06/07 16:00:29;;;;;;;10.43;6.50;;;;;;;;;;5091395;28;20216;-76
2022/06/07 16:02:56;;;;;;;12.93;6.97;;;;;;;;;;5093019;28;20197;-75
2022/06/07 16:05:23;;;;;;;10.50;6.97;;;;;;;;;;5087906;28;20221;-71
2022/06/07 16:07:49;;;;;;;12.73;6.63;;;;;;;;;;5088561;28;20210;-75
2022/06/07 16:10:16;;;;;;;9.80;6.72;;;;;;;;;;5094838;28;20176;-74
2022/06/07 16:12:43;;;;;;;12.52;6.78;;;;;;;;;;5091326;28;20646;-73
2022/06/07 16:15:10;;;;;;;15.90;7.85;;;;;;;;;;5068478;28;20189;-74
2022/06/07 16:17:36;;;;;;;12.57;7.88;;;;;;;;;;5085796;28;20728;-73
2022/06/07 16:20:03;;;;;;;13.00;7.68;;;;;;;;;;5083412;28;20257;-74
2022/06/07 16:22:29;;;;;;;14.65;8.05;;;;;;;;;;5096147;28;20198;-76
2022/06/07 16:24:56;;;;;;;13.55;8.25;;;;;;;;;;5092831;28;20273;-76
2022/06/07 16:35:37;;;;;;;15.32;8.55;;;;;;;;;;5089629;28;20193;-74
2022/06/07 16:38:03;;;;;;;13.10;8.57;;;;;;;;;;5086785;28;20190;-75
2022/06/07 16:40:29;;;;;;;11.07;7.68;;;;;;;;;;5047910;28;20207;-77
2022/06/07 16:42:55;;;;;;;11.30;8.10;;;;;;;;;;5079176;28;20187;-74
2022/06/07 16:45:22;;;;;;;16.95;8.38;;;;;;;;;;5061920;28;20194;-76
2022/06/07 16:47:48;;;;;;;13.52;7.82;;;;;;;;;;5074648;28;20214;-75
2022/06/07 16:50:14;;;;;;;9.73;7.70;;;;;;;;;;5072094;28;20183;-75
2022/06/07 16:52:41;;;;;;;10.60;8.18;;;;;;;;;;5072172;28;20232;-75
2022/06/07 16:55:07;;;;;;;13.00;8.02;;;;;;;;;;5077661;28;20197;-74
2022/06/07 16:57:33;;;;;;;10.57;7.00;;;;;;;;;;5053176;28;20186;-75
2022/06/07 16:59:59;;;;;;;13.23;7.30;;;;;;;;;;5071919;28;20215;-77
2022/06/07 17:02:25;;;;;;;14.23;8.10;;;;;;;;;;5075024;28;20226;-72
2022/06/07 17:04:51;;;;;;;10.50;7.32;;;;;;;;;;5078876;28;20182;-71
2022/06/07 17:07:18;;;;;;;12.90;7.47;;;;;;;;;;5068363;28;20264;-72
2022/06/07 17:09:44;;;;;;;12.82;7.38;;;;;;;;;;5070011;28;20175;-70
2022/06/07 17:15:06;;;;;;;12.35;6.90;;;;;;;;;;5707311;23;20325;-68
2022/06/07 17:17:33;;;;;;;11.38;6.70;;;;;;;;;;4971947;28;20233;-69
2022/06/07 17:19:59;;;;;;;11.25;6.63;;;;;;;;;;4963760;28;20714;-68
2022/06/07 17:22:25;;;;;;;11.60;6.80;;;;;;;;;;4971070;28;20190;-69
2022/06/07 17:24:51;;;;;;;12.10;6.70;;;;;;;;;;4955227;28;20284;-68
2022/06/07 17:27:17;;;;;;;9.05;6.38;;;;;;;;;;4976718;28;20229;-68
2022/06/07 17:29:43;;;;;;;9.27;6.57;;;;;;;;;;4955204;28;20186;-69
2022/06/07 17:32:10;;;;;;;9.95;6.65;;;;;;;;;;4941240;28;20197;-68
2022/06/07 17:34:36;;;;;;;10.68;6.65;;;;;;;;;;4978494;28;20617;-68
2022/06/07 17:37:03;;;;;;;11.65;7.00;;;;;;;;;;4972511;28;20189;-68
2022/06/07 17:39:29;;;;;;;12.90;7.30;;;;;;;;;;4954818;28;20186;-68
2022/06/07 17:41:55;;;;;;;11.48;6.88;;;;;;;;;;4961906;28;20193;-69
2022/06/07 17:44:21;;;;;;;11.40;7.28;;;;;;;;;;4985047;28;20182;-69
2022/06/07 17:46:48;;;;;;;13.52;7.10;;;;;;;;;;4966174;28;20213;-69
2022/06/07 17:49:14;;;;;;;11.90;7.85;;;;;;;;;;4971930;28;20191;-69
2022/06/07 17:51:41;;;;;;;14.60;7.72;;;;;;;;;;4956555;28;20198;-69
2022/06/07 17:54:07;;;;;;;14.13;8.60;;;;;;;;;;4963730;28;20196;-67
2022/06/07 17:56:34;;;;;;;8.93;7.20;;;;;;;;;;4970676;28;20297;-69
2022/06/07 17:59:00;;;;;;;12.20;7.82;;;;;;;;;;4954325;28;20198;-69
2022/06/07 18:01:26;;;;;;;12.70;8.27;;;;;;;;;;4972136;28;20190;-70
2022/06/07 18:03:53;;;;;;;11.50;8.10;;;;;;;;;;4972262;28;20209;-70
2022/06/07 18:06:19;;;;;;;11.88;8.68;;;;;;;;;;4975881;28;20213;-70
2022/06/07 18:08:46;;;;;;;17.27;8.10;;;;;;;;;;4953395;28;20198;-69
2022/06/07 18:11:12;;;;;;;13.00;8.60;;;;;;;;;;4973558;28;20282;-70
2022/06/07 18:13:39;;;;;;;12.73;9.05;;;;;;;;;;4975488;28;20287;-69
2022/06/07 18:16:05;;;;;;;13.15;8.90;;;;;;;;;;4971724;28;20217;-69
2022/06/07 18:18:31;;;;;;;13.30;8.65;;;;;;;;;;4945156;28;20710;-69
2022/06/07 18:21:01;;;;;;;15.43;8.93;;;;;;;;;;4971199;28;20190;-67
2022/06/07 18:23:30;;;;;;;11.93;8.55;;;;;;;;;;4971753;28;20281;-68
2022/06/07 18:25:56;;;;;;;18.08;8.88;;;;;;;;;;4971730;28;20205;-70
2022/06/07 18:28:22;;;;;;;11.98;8.93;;;;;;;;;;4950965;28;20186;-69
2022/06/07 18:30:49;;;;;;;16.95;8.82;;;;;;;;;;4930794;28;20194;-70
2022/06/07 18:33:16;;;;;;;13.43;8.88;;;;;;;;;;4971358;28;20182;-69
2022/06/07 18:35:46;;;;;;;15.38;9.23;;;;;;;;;;4962654;28;20186;-70
2022/06/07 18:38:12;;;;;;;11.32;8.13;;;;;;;;;;4938995;28;20236;-69
2022/06/07 18:40:43;;;;;;;14.73;8.75;;;;;;;;;;4966144;28;20194;-69
2022/06/07 18:43:13;;;;;;;12.30;7.93;;;;;;;;;;4967088;28;20269;-70
2022/06/07 18:45:39;;;;;;;11.98;8.18;;;;;;;;;;4953840;28;20564;-69
2022/06/07 18:48:06;;;;;;;10.25;8.77;;;;;;;;;;4953934;28;20246;-69
2022/06/07 18:50:34;;;;;;;12.32;9.13;;;;;;;;;;4950103;28;20684;-69
2022/06/07 18:53:01;;;;;;;12.88;8.55;;;;;;;;;;4952057;28;20197;-70
2022/06/07 18:55:28;;;;;;;11.95;8.45;;;;;;;;;;4968226;28;20663;-70
2022/06/07 18:57:54;;;;;;;12.43;8.55;;;;;;;;;;4950183;28;20595;-67
2022/06/07 19:00:22;;;;;;;15.13;9.93;;;;;;;;;;4967104;28;20186;-68
2022/06/07 19:02:48;;;;;;;13.65;10.30;;;;;;;;;;4962868;28;20639;-69
2022/06/07 19:05:26;;;;;;;16.38;10.90;;;;;;;;;;4952440;28;20194;-69
2022/06/07 19:07:53;;;;;;;17.65;10.68;;;;;;;;;;4969625;28;20214;-70
2022/06/07 19:10:20;;;;;;;18.80;10.98;;;;;;;;;;4946314;28;20226;-69
2022/06/07 19:12:50;;;;;;;12.82;9.65;;;;;;;;;;4949686;28;20190;-69
2022/06/07 19:15:23;;;;;;;18.13;10.50;;;;;;;;;;4952223;28;20193;-70
2022/06/07 19:17:50;;;;;;;14.85;10.15;;;;;;;;;;4971473;28;20227;-69
2022/06/07 19:20:16;;;;;;;17.80;10.20;;;;;;;;;;4986472;28;20205;-69
2022/06/07 19:22:42;;;;;;;13.48;9.77;;;;;;;;;;4971105;28;20579;-70
2022/06/07 19:25:09;;;;;;;14.52;10.07;;;;;;;;;;4967640;28;20695;-68
2022/06/07 19:27:36;;;;;;;17.63;10.13;;;;;;;;;;4945124;28;20221;-68
2022/06/07 19:30:03;;;;;;;17.42;9.88;;;;;;;;;;4970702;28;20241;-70
2022/06/07 19:32:29;;;;;;;15.50;10.35;;;;;;;;;;4985683;28;20268;-68
2022/06/07 19:34:55;;;;;;;16.45;10.18;;;;;;;;;;4972428;28;20190;-69
2022/06/07 19:37:21;;;;;;;15.68;11.55;;;;;;;;;;4963075;28;20245;-70
2022/06/07 19:39:47;;;;;;;16.55;11.15;;;;;;;;;;4985413;28;20276;-70
2022/06/07 19:42:14;;;;;;;18.08;11.82;;;;;;;;;;4968834;28;20678;-70
2022/06/07 19:44:42;;;;;;;18.30;11.23;;;;;;;;;;4952686;28;20548;-67
2022/06/07 19:47:09;;;;;;;15.50;11.23;;;;;;;;;;4981785;28;20236;-68
2022/06/07 19:49:37;;;;;;;14.75;10.20;;;;;;;;;;4946953;28;20185;-70
2022/06/07 19:52:03;;;;;;;15.50;10.35;;;;;;;;;;4986566;28;20201;-68
2022/06/07 19:54:30;;;;;;;16.10;10.90;;;;;;;;;;4955612;28;20244;-69
2022/06/07 19:57:02;;;;;;;18.13;10.60;;;;;;;;;;4974132;28;20584;-68
2022/06/07 19:59:29;;;;;;;16.02;10.40;;;;;;;;;;4989037;28;20201;-70
2022/06/07 20:01:55;;;;;;;17.35;11.20;;;;;;;;;;4964331;28;20216;-70
2022/06/07 20:04:21;;;;;;;14.98;10.98;;;;;;;;;;4955992;28;20201;-71
2022/06/07 20:06:49;;;;;;;15.90;10.82;;;;;;;;;;4964956;28;20210;-69
2022/06/07 20:09:15;;;;;;;16.65;11.35;;;;;;;;;;4970576;28;20186;-69
2022/06/07 20:11:42;;;;;;;17.70;11.45;;;;;;;;;;4969468;28;20192;-70
2022/06/07 20:14:08;;;;;;;20.05;12.18;;;;;;;;;;4974617;28;20186;-66
2022/06/07 20:16:35;;;;;;;20.25;11.90;;;;;;;;;;4973512;28;20221;-70
2022/06/07 20:19:01;;;;;;;21.35;12.18;;;;;;;;;;4958760;28;20200;-68
2022/06/07 20:21:27;;;;;;;21.33;12.50;;;;;;;;;;4958671;28;20526;-70
2022/06/07 20:23:53;;;;;;;18.15;13.38;;;;;;;;;;4993163;28;20203;-69
2022/06/07 20:26:19;;;;;;;21.88;13.85;;;;;;;;;;4993151;28;20688;-69
2022/06/07 20:28:46;;;;;;;21.08;14.75;;;;;;;;;;4980971;28;20213;-69
2022/06/07 20:31:12;;;;;;;22.38;14.80;;;;;;;;;;4960524;28;20213;-69
2022/06/07 20:33:38;;;;;;;23.25;15.80;;;;;;;;;;4975847;28;20169;-68
2022/06/07 20:36:05;;;;;;;22.88;15.73;;;;;;;;;;4993198;28;20642;-68
2022/06/07 20:38:31;;;;;;;25.67;16.73;;;;;;;;;;4983288;28;20221;-68
2022/06/07 20:40:57;;;;;;;24.48;14.95;;;;;;;;;;4974059;28;20205;-71
2022/06/07 20:43:24;;;;;;;20.25;15.27;;;;;;;;;;4973771;28;20187;-71
2022/06/07 20:45:52;;;;;;;23.75;16.10;;;;;;;;;;4973658;28;20182;-72
2022/06/07 20:48:19;;;;;;;21.98;13.75;;;;;;;;;;4975630;28;20218;-71
2022/06/07 20:50:48;;;;;;;24.42;14.88;;;;;;;;;;4983224;28;20194;-69
2022/06/07 20:53:14;;;;;;;22.60;15.57;;;;;;;;;;4985874;28;20268;-68
2022/06/07 20:55:41;;;;;;;23.52;15.73;;;;;;;;;;4976505;28;20593;-68
2022/06/07 20:58:07;;;;;;;22.63;16.13;;;;;;;;;;4992859;28;20543;-68
2022/06/07 21:00:34;;;;;;;23.17;16.67;;;;;;;;;;4973626;28;20194;-68
2022/06/07 21:03:00;;;;;;;30.83;18.13;;;;;;;;;;4963772;28;20190;-69
2022/06/07 21:05:26;;;;;;;34.60;19.10;;;;;;;;;;4981423;28;20189;-67
2022/06/07 21:07:52;;;;;;;23.85;17.58;;;;;;;;;;4991833;28;20233;-71
2022/06/07 21:10:18;;;;;;;24.83;18.75;;;;;;;;;;4992443;28;20267;-69
2022/06/07 21:12:45;;;;;;;27.83;18.63;;;;;;;;;;4973203;28;20209;-71
2022/06/07 21:15:13;;;;;;;28.65;19.33;;;;;;;;;;4970718;28;20649;-69
2022/06/07 21:17:40;;;;;;;26.13;19.02;;;;;;;;;;4991298;28;20228;-68
2022/06/07 21:20:09;;;;;;;26.90;18.30;;;;;;;;;;4959059;28;20197;-69
2022/06/07 21:22:36;;;;;;;27.20;18.38;;;;;;;;;;4958853;28;20182;-68
2022/06/07 21:25:02;;;;;;;26.15;19.27;;;;;;;;;;4968925;28;20249;-68
2022/06/07 21:27:29;;;;;;;27.52;19.17;;;;;;;;;;4983231;28;20213;-68
2022/06/07 21:29:55;;;;;;;29.83;19.35;;;;;;;;;;4992326;28;20188;-68
2022/06/07 21:32:24;;;;;;;29.20;19.13;;;;;;;;;;4992344;28;20189;-71
2022/06/07 21:34:50;;;;;;;26.00;18.48;;;;;;;;;;4992098;28;20192;-70
2022/06/07 21:37:16;;;;;;;25.90;18.25;;;;;;;;;;4965307;28;20208;-71
2022/06/07 21:39:42;;;;;;;26.02;18.35;;;;;;;;;;4971963;28;20201;-69
2022/06/07 21:42:08;;;;;;;29.05;17.63;;;;;;;;;;4958687;28;20543;-70
2022/06/07 21:44:34;;;;;;;28.40;17.80;;;;;;;;;;4992459;28;20584;-68
2022/06/07 21:47:00;;;;;;;26.00;16.95;;;;;;;;;;4987146;28;20217;-70
2022/06/07 21:49:26;;;;;;;25.27;17.65;;;;;;;;;;4955781;28;20197;-72
2022/06/07 21:51:52;;;;;;;23.98;18.02;;;;;;;;;;4955080;28;20182;-70
2022/06/07 21:54:19;;;;;;;27.25;18.15;;;;;;;;;;4957538;28;20714;-70
2022/06/07 21:56:45;;;;;;;25.58;18.15;;;;;;;;;;4991966;28;20189;-71
2022/06/07 21:59:11;;;;;;;32.00;18.73;;;;;;;;;;4982066;28;20197;-72
2022/06/07 22:01:38;;;;;;;29.08;19.17;;;;;;;;;;4962393;28;20628;-71
2022/06/07 22:04:04;;;;;;;27.38;19.10;;;;;;;;;;4963929;28;20201;-70
2022/06/07 22:06:31;;;;;;;30.35;20.27;;;;;;;;;;4991480;28;20233;-70
2022/06/07 22:08:57;;;;;;;26.85;19.60;;;;;;;;;;4985459;28;20194;-69
2022/06/07 22:11:24;;;;;;;28.70;19.27;;;;;;;;;;4959390;28;20185;-68
2022/06/07 22:13:50;;;;;;;26.45;19.33;;;;;;;;;;4974269;28;20193;-70
2022/06/07 22:16:17;;;;;;;27.60;19.13;;;;;;;;;;4991239;28;20225;-69
2022/06/07 22:18:43;;;;;;;27.67;19.27;;;;;;;;;;4991408;28;20182;-69
2022/06/07 22:21:10;;;;;;;25.80;19.85;;;;;;;;;;4959167;28;20194;-69
2022/06/07 22:23:36;;;;;;;26.98;19.52;;;;;;;;;;4944476;28;20214;-70
2022/06/07 22:26:02;;;;;;;32.55;19.77;;;;;;;;;;4991197;28;20268;-69
2022/06/07 22:29:37;;;;;;;30.55;19.17;;;;;;;;;;4991250;28;20224;-70
2022/06/07 22:31:15;;;;;;;25.88;19.38;;;;;;;;;;4964572;28;20273;-69
2022/06/07 22:33:41;;;;;;;26.45;18.63;;;;;;;;;;4970727;28;20237;-70
2022/06/07 22:36:07;;;;;;;28.55;18.90;;;;;;;;;;4954221;28;20233;-71
2022/06/07 22:38:33;;;;;;;28.13;18.75;;;;;;;;;;4989708;28;20196;-67
2022/06/07 22:40:59;;;;;;;30.77;19.83;;;;;;;;;;4973378;28;20677;-69
2022/06/07 22:43:25;;;;;;;29.70;18.95;;;;;;;;;;4990999;28;20181;-69
2022/06/07 22:45:51;;;;;;;29.05;18.90;;;;;;;;;;4961937;28;20182;-69
2022/06/07 22:48:17;;;;;;;28.05;18.77;;;;;;;;;;4973563;28;20303;-68
2022/06/07 22:50:44;;;;;;;25.85;18.85;;;;;;;;;;4982035;28;20192;-68
2022/06/07 22:53:16;;;;;;;26.35;18.70;;;;;;;;;;4990799;28;20190;-71
2022/06/07 22:55:47;;;;;;;23.17;18.13;;;;;;;;;;4973429;28;20645;-70
2022/06/07 22:58:16;;;;;;;26.33;18.92;;;;;;;;;;4958812;28;20182;-68
2022/06/07 23:00:43;;;;;;;24.17;18.95;;;;;;;;;;4983450;28;20659;-70
2022/06/07 23:03:17;;;;;;;27.17;19.45;;;;;;;;;;4990743;28;20532;-71
2022/06/07 23:05:43;;;;;;;26.67;17.98;;;;;;;;;;4990685;28;20657;-69
2022/06/07 23:08:10;;;;;;;29.77;18.95;;;;;;;;;;4990390;28;20275;-69
2022/06/07 23:10:36;;;;;;;31.90;18.95;;;;;;;;;;4968011;28;20185;-70
2022/06/07 23:13:02;;;;;;;25.83;19.30;;;;;;;;;;4973096;28;20845;-70
2022/06/07 23:18:13;;;;;;;25.48;18.10;;;;;;;;;;4990453;28;20204;-71
2022/06/07 23:20:39;;;;;;;28.52;19.42;;;;;;;;;;4952849;28;20560;-71
2022/06/07 23:23:05;;;;;;;25.10;17.42;;;;;;;;;;4973208;28;20197;-71
2022/06/07 23:25:31;;;;;;;23.45;16.83;;;;;;;;;;4971116;28;21142;-69
2022/06/07 23:27:57;;;;;;;24.35;17.42;;;;;;;;;;4972071;28;20560;-69
2022/06/07 23:30:24;;;;;;;22.73;16.05;;;;;;;;;;4990465;28;20200;-67
2022/06/07 23:32:50;;;;;;;25.05;15.00;;;;;;;;;;4979329;28;20787;-70
2022/06/07 23:35:17;;;;;;;22.40;14.35;;;;;;;;;;4990224;28;20272;-69
2022/06/07 23:37:44;;;;;;;20.20;12.52;;;;;;;;;;4972797;28;20308;-67
2022/06/07 23:40:11;;;;;;;19.23;13.38;;;;;;;;;;4972858;28;20280;-66
2022/06/07 23:42:38;;;;;;;22.25;13.13;;;;;;;;;;4966757;28;20665;-70
2022/06/07 23:45:04;;;;;;;19.63;12.60;;;;;;;;;;4973083;28;20208;-69
2022/06/07 23:47:33;;;;;;;17.67;12.38;;;;;;;;;;4972686;28;20224;-69
2022/06/07 23:50:20;;;;;;;19.65;12.65;;;;;;;;;;4976319;28;20495;-70
2022/06/07 23:52:47;;;;;;;18.75;12.27;;;;;;;;;;4964530;28;20201;-68
2022/06/07 23:55:14;;;;;;;16.38;11.02;;;;;;;;;;4974667;28;20178;-70
2022/06/07 23:57:41;;;;;;;21.95;11.93;;;;;;;;;;4993233;28;20193;-71
